Terminal Aerodrome Forecast
Issued by NWS

Home | Current Version | Previous Version | Text Only | Print | Product List | Glossary On
Versions: 1 2 3 4 5 6 7 8 9 10 11 12 13 14 15 16 17 18 19 20 21 22 23 24 25 26
000
FTUS45 KLKN 242320
TAFELY
TAF
KELY 242320Z 2500/2524 26010KT 3SM -SN OVC025
      TEMPO 2500/2504 1SM -SN BR BKN015
     FM250500 32011KT P6SM VCSH BKN040
     FM251100 18010KT P6SM SCT100
      AMD NOT SKED=

USA.gov is the U.S. government's official web portal to all federal, state and local government web resources and services.